Time;durP1;ratioP1;P1;durP2;ratioP2;P2;SDS_P1;SDS_P2;PMS_P1;PMS_P2;Temp;Humidity;BMP_temperature;BMP_pressure;BME280_temperature;BME280_humidity;BME280_pressure;Samples;Min_cycle;Max_cycle;Signal;HPM_P1;HPM_P2
2021/03/18 00:01:47;;;;;;;19.77;17.10;;;;;;;;;;5017487;28;20537;-11
2021/03/18 00:04:16;;;;;;;17.40;14.90;;;;;;;;;;5017969;28;20442;-12
2021/03/18 00:06:43;;;;;;;17.03;14.57;;;;;;;;;;5034785;28;20528;-12
2021/03/18 00:09:13;;;;;;;17.97;14.80;;;;;;;;;;5017961;28;20448;-12
2021/03/18 00:11:43;;;;;;;19.47;14.47;;;;;;;;;;5017501;28;20426;-12
2021/03/18 00:14:10;;;;;;;16.70;14.50;;;;;;;;;;5018711;28;20471;-12
2021/03/18 00:16:38;;;;;;;19.43;15.57;;;;;;;;;;5034778;28;20431;-11
2021/03/18 00:19:05;;;;;;;22.90;15.93;;;;;;;;;;5034664;28;20546;-12
2021/03/18 00:21:32;;;;;;;15.40;13.33;;;;;;;;;;5033916;28;20496;-12
2021/03/18 00:23:59;;;;;;;17.70;15.13;;;;;;;;;;5017268;28;20443;-12
2021/03/18 00:26:28;;;;;;;18.03;14.80;;;;;;;;;;5017561;28;20438;-11
2021/03/18 00:28:55;;;;;;;14.50;13.00;;;;;;;;;;5034290;28;20919;-11
2021/03/18 00:31:23;;;;;;;17.57;12.33;;;;;;;;;;5033913;28;20450;-11
2021/03/18 00:33:56;;;;;;;17.80;14.40;;;;;;;;;;5015631;28;20620;-11
2021/03/18 00:36:23;;;;;;;15.77;14.10;;;;;;;;;;5034844;28;20438;-11
2021/03/18 00:38:51;;;;;;;18.47;14.40;;;;;;;;;;5034238;28;20447;-11
2021/03/18 00:41:18;;;;;;;17.37;15.60;;;;;;;;;;5034708;28;20435;-10
2021/03/18 00:43:46;;;;;;;20.07;15.37;;;;;;;;;;5034629;28;20462;-11
2021/03/18 00:46:14;;;;;;;19.10;15.10;;;;;;;;;;5033488;28;20443;-11
2021/03/18 00:48:45;;;;;;;18.77;14.53;;;;;;;;;;5016277;28;20477;-11
2021/03/18 00:51:14;;;;;;;15.97;14.27;;;;;;;;;;5035302;28;20600;-12
2021/03/18 00:53:42;;;;;;;19.13;15.00;;;;;;;;;;5033066;28;20542;-12
2021/03/18 00:56:12;;;;;;;18.77;14.70;;;;;;;;;;5032607;28;20466;-10
2021/03/18 00:58:40;;;;;;;16.87;14.70;;;;;;;;;;5032830;28;20451;-10
2021/03/18 01:01:08;;;;;;;19.27;15.53;;;;;;;;;;5016476;28;20457;-11
2021/03/18 01:03:36;;;;;;;19.37;17.03;;;;;;;;;;5016915;28;20438;-11
2021/03/18 01:06:06;;;;;;;20.57;14.97;;;;;;;;;;5033079;28;20534;-11
2021/03/18 01:08:51;;;;;;;15.80;13.10;;;;;;;;;;5017188;28;20439;-11
2021/03/18 01:11:19;;;;;;;16.30;14.50;;;;;;;;;;5032714;28;20772;-11
2021/03/18 01:13:47;;;;;;;17.33;14.43;;;;;;;;;;5033879;28;20774;-9
2021/03/18 01:16:17;;;;;;;15.87;13.37;;;;;;;;;;5032392;28;20442;-11
2021/03/18 01:18:45;;;;;;;15.33;13.33;;;;;;;;;;5032956;28;20592;-11
2021/03/18 01:21:12;;;;;;;14.87;13.30;;;;;;;;;;5033150;28;20478;-11
2021/03/18 01:23:39;;;;;;;16.10;14.30;;;;;;;;;;5033687;28;20557;-11
2021/03/18 01:26:07;;;;;;;13.00;11.70;;;;;;;;;;5016759;28;20516;-11
2021/03/18 01:28:34;;;;;;;14.20;12.70;;;;;;;;;;5033752;28;20458;-11
2021/03/18 01:31:01;;;;;;;15.50;13.87;;;;;;;;;;5032408;28;20860;-11
2021/03/18 01:33:29;;;;;;;13.77;12.37;;;;;;;;;;5031379;28;20491;-12
2021/03/18 01:36:00;;;;;;;14.33;12.83;;;;;;;;;;5015905;28;20462;-11
2021/03/18 01:38:27;;;;;;;12.33;11.17;;;;;;;;;;5015816;28;20525;-12
2021/03/18 01:40:53;;;;;;;15.70;12.50;;;;;;;;;;5033240;28;20470;-11
2021/03/18 01:43:20;;;;;;;17.90;14.80;;;;;;;;;;5033732;28;20479;-11
2021/03/18 01:45:48;;;;;;;19.40;15.60;;;;;;;;;;5033778;28;20431;-12
2021/03/18 01:48:15;;;;;;;18.53;14.07;;;;;;;;;;5032328;28;20477;-11
2021/03/18 01:50:44;;;;;;;17.40;13.43;;;;;;;;;;5032189;28;20455;-11
2021/03/18 01:53:11;;;;;;;14.73;13.20;;;;;;;;;;5032996;28;20438;-10
2021/03/18 01:55:39;;;;;;;16.43;14.40;;;;;;;;;;5033519;28;20459;-11
2021/03/18 01:58:06;;;;;;;17.53;15.70;;;;;;;;;;5037967;28;20450;-10
2021/03/18 02:00:34;;;;;;;18.87;15.17;;;;;;;;;;5039646;28;20469;-10
2021/03/18 02:03:01;;;;;;;18.70;15.60;;;;;;;;;;5036538;28;20447;-13
2021/03/18 02:05:29;;;;;;;19.13;14.27;;;;;;;;;;5033384;28;20911;-11
2021/03/18 02:07:57;;;;;;;15.93;13.70;;;;;;;;;;5032940;28;20549;-10
2021/03/18 02:10:25;;;;;;;19.20;15.50;;;;;;;;;;5032590;28;20493;-11
2021/03/18 02:12:52;;;;;;;15.80;13.70;;;;;;;;;;5032739;28;20465;-11
2021/03/18 02:15:21;;;;;;;15.67;14.00;;;;;;;;;;5032651;28;20454;-11
2021/03/18 02:17:54;;;;;;;18.00;14.87;;;;;;;;;;5033026;28;20457;-11
2021/03/18 02:20:55;;;;;;;16.33;14.60;;;;;;;;;;5033189;28;20450;-10
2021/03/18 02:23:37;;;;;;;19.13;14.50;;;;;;;;;;5032514;28;20905;-11
2021/03/18 02:26:10;;;;;;;16.07;14.47;;;;;;;;;;5012907;28;20504;-10
2021/03/18 02:28:51;;;;;;;14.23;12.73;;;;;;;;;;5033416;28;21035;-10
2021/03/18 02:31:29;;;;;;;13.97;12.47;;;;;;;;;;5029939;28;20434;-12
2021/03/18 02:34:03;;;;;;;16.70;14.90;;;;;;;;;;5032659;28;20457;-12
2021/03/18 02:36:36;;;;;;;15.33;12.67;;;;;;;;;;5037120;28;20499;-12
2021/03/18 02:39:06;;;;;;;16.20;13.10;;;;;;;;;;5036652;28;20440;-13
2021/03/18 02:41:37;;;;;;;15.67;14.07;;;;;;;;;;5036229;28;20458;-12
2021/03/18 02:44:06;;;;;;;23.23;15.07;;;;;;;;;;5035755;28;20454;-12
2021/03/18 02:46:34;;;;;;;17.83;15.43;;;;;;;;;;5036983;28;20864;-11
2021/03/18 02:49:02;;;;;;;18.23;15.73;;;;;;;;;;5036960;28;20446;-12
2021/03/18 02:51:31;;;;;;;15.83;13.47;;;;;;;;;;5017665;28;20445;-11
2021/03/18 02:53:59;;;;;;;19.47;14.53;;;;;;;;;;5035924;28;20500;-11
2021/03/18 02:56:26;;;;;;;17.20;14.80;;;;;;;;;;5018164;28;21014;-12
2021/03/18 02:58:56;;;;;;;21.50;17.10;;;;;;;;;;5035856;28;20458;-12
2021/03/18 03:01:23;;;;;;;16.57;14.87;;;;;;;;;;5034307;28;20443;-12
2021/03/18 03:03:50;;;;;;;17.23;15.17;;;;;;;;;;5035937;28;20446;-12
2021/03/18 03:06:19;;;;;;;17.33;15.53;;;;;;;;;;5035589;28;20869;-11
2021/03/18 03:08:47;;;;;;;16.47;14.77;;;;;;;;;;5035680;28;20439;-12
2021/03/18 03:11:15;;;;;;;16.70;14.33;;;;;;;;;;5017902;28;20446;-12
2021/03/18 03:13:43;;;;;;;20.97;16.37;;;;;;;;;;5035536;28;20862;-11
2021/03/18 03:16:11;;;;;;;16.13;14.40;;;;;;;;;;5016563;28;20471;-12
2021/03/18 03:18:39;;;;;;;16.73;14.70;;;;;;;;;;5034198;28;20442;-11
2021/03/18 03:21:08;;;;;;;18.60;14.20;;;;;;;;;;5034947;28;20901;-12
2021/03/18 03:23:35;;;;;;;21.67;17.33;;;;;;;;;;5034602;28;20439;-12
2021/03/18 03:26:03;;;;;;;18.90;16.20;;;;;;;;;;5035000;28;20442;-12
2021/03/18 03:28:32;;;;;;;17.40;15.60;;;;;;;;;;5036876;28;20461;-12
2021/03/18 03:31:00;;;;;;;17.87;14.63;;;;;;;;;;5035621;28;20447;-12
2021/03/18 03:33:28;;;;;;;17.80;15.10;;;;;;;;;;5016552;28;20439;-10
2021/03/18 03:35:55;;;;;;;19.00;15.53;;;;;;;;;;5017415;28;20478;-11
2021/03/18 03:38:22;;;;;;;18.40;15.20;;;;;;;;;;5017694;28;20451;-11
2021/03/18 03:40:49;;;;;;;19.80;16.10;;;;;;;;;;5035394;28;20504;-11
2021/03/18 03:43:16;;;;;;;16.00;14.40;;;;;;;;;;5035170;28;20454;-11
2021/03/18 03:45:47;;;;;;;18.43;14.57;;;;;;;;;;5016045;28;20443;-10
2021/03/18 03:48:15;;;;;;;18.77;15.27;;;;;;;;;;5034685;28;20496;-11
2021/03/18 03:50:42;;;;;;;16.07;14.43;;;;;;;;;;5033673;28;20430;-10
2021/03/18 03:53:15;;;;;;;17.87;15.70;;;;;;;;;;5034666;28;20439;-12
2021/03/18 03:55:46;;;;;;;19.20;16.23;;;;;;;;;;5034598;28;20497;-11
2021/03/18 03:58:16;;;;;;;18.67;15.17;;;;;;;;;;5017866;28;20484;-11
2021/03/18 04:00:44;;;;;;;15.67;13.90;;;;;;;;;;5034103;28;20791;-10
2021/03/18 04:03:11;;;;;;;18.83;14.80;;;;;;;;;;5033706;28;20441;-10
2021/03/18 04:05:42;;;;;;;17.60;15.70;;;;;;;;;;5032621;28;20787;-10
2021/03/18 04:08:11;;;;;;;16.57;14.70;;;;;;;;;;5033219;28;20439;-11
2021/03/18 04:10:40;;;;;;;18.00;14.50;;;;;;;;;;5032190;28;20439;-11
2021/03/18 04:13:09;;;;;;;17.00;15.23;;;;;;;;;;5032650;28;20446;-11
2021/03/18 04:15:36;;;;;;;16.47;14.50;;;;;;;;;;5034579;28;20566;-11
2021/03/18 04:18:05;;;;;;;17.90;15.50;;;;;;;;;;5034487;28;20478;-11
2021/03/18 04:20:33;;;;;;;16.10;14.50;;;;;;;;;;5015684;28;20497;-12
2021/03/18 04:23:01;;;;;;;17.63;15.17;;;;;;;;;;5034618;28;20862;-10
2021/03/18 04:25:29;;;;;;;18.20;15.87;;;;;;;;;;5034268;28;20446;-12
2021/03/18 04:27:57;;;;;;;19.80;17.07;;;;;;;;;;5032720;28;20512;-11
2021/03/18 04:30:24;;;;;;;18.20;16.23;;;;;;;;;;5016168;28;20465;-11
2021/03/18 04:32:52;;;;;;;16.70;15.10;;;;;;;;;;5032843;28;20439;-11
2021/03/18 04:35:20;;;;;;;15.20;13.63;;;;;;;;;;5033412;28;20509;-10
2021/03/18 04:37:47;;;;;;;17.40;15.30;;;;;;;;;;5034044;28;20435;-11
2021/03/18 04:40:16;;;;;;;17.57;14.30;;;;;;;;;;5033539;28;20537;-10
2021/03/18 04:42:43;;;;;;;15.33;13.73;;;;;;;;;;5031850;28;20472;-10
2021/03/18 04:45:11;;;;;;;18.77;15.37;;;;;;;;;;5031984;28;20435;-11
2021/03/18 04:47:41;;;;;;;17.50;15.50;;;;;;;;;;5029766;28;20442;-11
2021/03/18 04:50:11;;;;;;;16.93;15.07;;;;;;;;;;5031071;28;20476;-11
2021/03/18 04:52:40;;;;;;;17.03;15.23;;;;;;;;;;5009434;28;20905;-11
2021/03/18 04:55:08;;;;;;;19.50;15.67;;;;;;;;;;5029433;28;20567;-11
2021/03/18 04:57:36;;;;;;;17.40;13.83;;;;;;;;;;5015099;28;20862;-11
2021/03/18 05:00:06;;;;;;;18.73;16.10;;;;;;;;;;5015426;28;20471;-12
2021/03/18 05:02:33;;;;;;;23.53;16.77;;;;;;;;;;5013528;28;20722;-11
2021/03/18 05:05:01;;;;;;;21.80;17.50;;;;;;;;;;5009089;28;20454;-11
2021/03/18 05:07:30;;;;;;;18.87;15.80;;;;;;;;;;5008300;28;20439;-11
2021/03/18 05:09:58;;;;;;;17.77;15.37;;;;;;;;;;5011198;28;20440;-11
2021/03/18 05:12:25;;;;;;;29.60;15.07;;;;;;;;;;5009614;28;20456;-11
2021/03/18 05:14:52;;;;;;;20.60;15.90;;;;;;;;;;4991842;28;20474;-11
2021/03/18 05:17:19;;;;;;;19.93;15.70;;;;;;;;;;5007092;28;20611;-12
2021/03/18 05:19:46;;;;;;;19.63;16.13;;;;;;;;;;5005792;28;20573;-11
2021/03/18 05:22:13;;;;;;;22.33;19.90;;;;;;;;;;5007199;28;20486;-10
2021/03/18 05:24:41;;;;;;;18.70;16.53;;;;;;;;;;5008716;28;20444;-11
2021/03/18 05:27:09;;;;;;;18.60;14.73;;;;;;;;;;5007095;28;20925;-10
2021/03/18 05:29:36;;;;;;;18.80;15.80;;;;;;;;;;4986172;28;20573;-12
2021/03/18 05:32:03;;;;;;;19.70;15.80;;;;;;;;;;5004301;28;20470;-10
2021/03/18 05:34:30;;;;;;;20.53;18.37;;;;;;;;;;5005894;28;20448;-12
2021/03/18 05:36:57;;;;;;;20.50;16.50;;;;;;;;;;5005813;28;20431;-10
2021/03/18 05:39:24;;;;;;;19.73;17.40;;;;;;;;;;4988331;28;20497;-10
2021/03/18 05:41:51;;;;;;;22.60;18.00;;;;;;;;;;5005027;28;20507;-11
2021/03/18 05:44:19;;;;;;;23.10;19.17;;;;;;;;;;5008714;28;20905;-10
2021/03/18 05:46:47;;;;;;;26.77;18.07;;;;;;;;;;4988680;28;20806;-10
2021/03/18 05:49:14;;;;;;;24.77;18.80;;;;;;;;;;5005575;28;20459;-11
2021/03/18 05:51:44;;;;;;;21.40;17.60;;;;;;;;;;5005562;28;20454;-10
2021/03/18 05:54:11;;;;;;;20.87;17.53;;;;;;;;;;5002518;28;20604;-10
2021/03/18 05:56:39;;;;;;;20.30;17.70;;;;;;;;;;5000855;28;20494;-11
2021/03/18 05:59:06;;;;;;;22.10;18.10;;;;;;;;;;5000831;28;20727;-12
2021/03/18 06:01:34;;;;;;;21.20;16.67;;;;;;;;;;4998800;28;20474;-11
2021/03/18 06:04:02;;;;;;;19.47;15.40;;;;;;;;;;4999836;28;20444;-11
2021/03/18 06:06:29;;;;;;;19.57;15.97;;;;;;;;;;4995275;28;20803;-10
2021/03/18 06:08:56;;;;;;;22.00;17.07;;;;;;;;;;4995266;28;20634;-9
2021/03/18 06:11:23;;;;;;;19.70;17.37;;;;;;;;;;5004883;28;20461;-11
2021/03/18 06:13:50;;;;;;;23.13;17.57;;;;;;;;;;5020637;28;20450;-12
2021/03/18 06:16:17;;;;;;;21.43;17.40;;;;;;;;;;5002199;28;20471;-12
2021/03/18 06:18:45;;;;;;;18.63;16.53;;;;;;;;;;5016217;28;20695;-12
2021/03/18 06:21:12;;;;;;;33.27;24.80;;;;;;;;;;5015879;28;20592;-12
2021/03/18 06:23:39;;;;;;;61.63;37.00;;;;;;;;;;4995155;28;20881;-12
2021/03/18 06:26:06;;;;;;;29.77;23.20;;;;;;;;;;4997487;28;20657;-9
2021/03/18 06:28:34;;;;;;;33.33;21.90;;;;;;;;;;4994267;28;21164;-10
2021/03/18 06:31:02;;;;;;;21.47;17.67;;;;;;;;;;5000512;28;21248;-10
2021/03/18 06:33:30;;;;;;;24.50;21.20;;;;;;;;;;5000068;28;20802;-11
2021/03/18 06:35:58;;;;;;;22.83;18.83;;;;;;;;;;5014861;28;20463;-11
2021/03/18 06:38:26;;;;;;;19.43;17.23;;;;;;;;;;5008020;28;20587;-11
2021/03/18 06:40:53;;;;;;;23.17;17.97;;;;;;;;;;5008911;28;20674;-11
2021/03/18 06:43:34;;;;;;;20.37;18.27;;;;;;;;;;5010449;28;20472;-10
2021/03/18 06:46:14;;;;;;;17.83;15.93;;;;;;;;;;5009436;28;20445;-11
2021/03/18 06:48:41;;;;;;;18.57;15.70;;;;;;;;;;5006649;28;20473;-12
2021/03/18 06:51:17;;;;;;;20.10;18.07;;;;;;;;;;4991223;28;20901;-9
2021/03/18 06:53:44;;;;;;;23.47;19.03;;;;;;;;;;5001463;28;20446;-12
2021/03/18 06:56:28;;;;;;;21.83;18.13;;;;;;;;;;5001859;28;20503;-10
2021/03/18 06:58:55;;;;;;;20.30;16.70;;;;;;;;;;4988529;28;20962;-11
2021/03/18 07:01:23;;;;;;;20.70;17.70;;;;;;;;;;5001093;28;20762;-12
2021/03/18 07:03:52;;;;;;;20.93;17.63;;;;;;;;;;5002655;28;20485;-11
2021/03/18 07:06:30;;;;;;;19.53;16.70;;;;;;;;;;4997241;28;20453;-11
2021/03/18 07:09:06;;;;;;;28.53;16.93;;;;;;;;;;4987550;28;20738;-13
2021/03/18 07:11:36;;;;;;;18.40;16.00;;;;;;;;;;4988160;28;20637;-13
2021/03/18 07:14:03;;;;;;;21.27;17.80;;;;;;;;;;4989616;28;20465;-12
2021/03/18 07:16:39;;;;;;;22.87;17.63;;;;;;;;;;4976992;28;20652;-13
2021/03/18 07:19:06;;;;;;;21.80;18.10;;;;;;;;;;4995236;28;20438;-12
2021/03/18 07:21:37;;;;;;;23.00;19.33;;;;;;;;;;4985804;28;20486;-13
2021/03/18 07:24:05;;;;;;;21.50;18.60;;;;;;;;;;4989371;28;20554;-12
2021/03/18 07:26:38;;;;;;;20.27;15.70;;;;;;;;;;4996513;28;20718;-13
2021/03/18 07:29:16;;;;;;;18.07;16.00;;;;;;;;;;4999359;28;21014;-13
2021/03/18 07:31:43;;;;;;;18.80;16.80;;;;;;;;;;4995936;28;20757;-13
2021/03/18 07:34:11;;;;;;;17.30;15.40;;;;;;;;;;4984350;28;20462;-11
2021/03/18 07:36:40;;;;;;;18.80;15.20;;;;;;;;;;5000065;28;20466;-13
2021/03/18 07:39:07;;;;;;;19.07;16.27;;;;;;;;;;5006228;28;20492;-12
2021/03/18 07:41:34;;;;;;;16.80;14.93;;;;;;;;;;4987545;28;20470;-13
2021/03/18 07:44:01;;;;;;;20.30;15.47;;;;;;;;;;4981632;28;20482;-13
2021/03/18 07:46:28;;;;;;;17.33;15.53;;;;;;;;;;4985951;28;20860;-12
2021/03/18 07:48:58;;;;;;;17.37;15.43;;;;;;;;;;4983107;28;20516;-12
2021/03/18 07:51:27;;;;;;;16.77;15.17;;;;;;;;;;4992779;28;20505;-13
2021/03/18 07:53:56;;;;;;;16.73;14.93;;;;;;;;;;4969579;28;21053;-12
2021/03/18 07:56:23;;;;;;;17.40;15.07;;;;;;;;;;4984135;28;20478;-12
2021/03/18 07:58:50;;;;;;;16.37;14.20;;;;;;;;;;4982999;28;20879;-11
2021/03/18 08:01:36;;;;;;;18.77;16.00;;;;;;;;;;4995844;28;20826;-11
2021/03/18 08:04:04;;;;;;;18.60;16.57;;;;;;;;;;4943604;28;20457;-12
2021/03/18 08:06:51;;;;;;;17.53;15.70;;;;;;;;;;4961448;28;20435;-12
2021/03/18 08:09:39;;;;;;;19.70;15.63;;;;;;;;;;4945021;28;20447;-11
2021/03/18 08:12:07;;;;;;;16.40;14.70;;;;;;;;;;4963028;28;20471;-12
2021/03/18 08:14:34;;;;;;;20.67;18.50;;;;;;;;;;4981231;28;21019;-12
2021/03/18 08:17:01;;;;;;;18.27;16.40;;;;;;;;;;4971938;28;20455;-12
2021/03/18 08:19:40;;;;;;;18.10;16.10;;;;;;;;;;4966432;28;20536;-12
2021/03/18 08:22:26;;;;;;;19.23;15.37;;;;;;;;;;5000476;28;20486;-12
2021/03/18 08:24:54;;;;;;;19.53;17.43;;;;;;;;;;4976687;28;20782;-12
2021/03/18 08:27:29;;;;;;;18.43;16.40;;;;;;;;;;4958638;28;20533;-12
2021/03/18 08:29:56;;;;;;;17.90;14.97;;;;;;;;;;4986803;28;20808;-12
2021/03/18 08:32:28;;;;;;;18.60;16.13;;;;;;;;;;5001828;28;20446;-12
2021/03/18 08:34:56;;;;;;;21.80;15.50;;;;;;;;;;4998141;28;20454;-12
2021/03/18 08:37:36;;;;;;;18.50;15.23;;;;;;;;;;4992995;28;20534;-13
2021/03/18 08:40:06;;;;;;;17.10;15.40;;;;;;;;;;5002245;28;20512;-12
2021/03/18 08:42:53;;;;;;;22.60;16.47;;;;;;;;;;4987115;28;20817;-12
2021/03/18 08:45:35;;;;;;;17.43;15.20;;;;;;;;;;4997680;28;20501;-12
2021/03/18 08:48:10;;;;;;;19.07;16.00;;;;;;;;;;4997725;28;20455;-13
2021/03/18 08:50:53;;;;;;;20.67;17.40;;;;;;;;;;4982685;28;20450;-12
2021/03/18 08:53:45;;;;;;;19.40;15.73;;;;;;;;;;4966727;28;20481;-12
2021/03/18 08:56:13;;;;;;;21.00;16.63;;;;;;;;;;4968836;28;21074;-12
2021/03/18 08:58:53;;;;;;;17.90;16.03;;;;;;;;;;5000385;28;20454;-11
2021/03/18 09:01:21;;;;;;;21.30;19.00;;;;;;;;;;4981137;28;20458;-12
2021/03/18 09:03:54;;;;;;;20.23;16.60;;;;;;;;;;4956816;28;20446;-13
2021/03/18 09:06:21;;;;;;;18.00;16.30;;;;;;;;;;4958353;28;20450;-12
2021/03/18 09:08:49;;;;;;;17.40;15.63;;;;;;;;;;4966824;28;20512;-11
2021/03/18 09:11:24;;;;;;;19.00;17.17;;;;;;;;;;4968053;28;20435;-11
2021/03/18 09:13:51;;;;;;;17.60;15.53;;;;;;;;;;4974259;28;20531;-11
2021/03/18 09:16:22;;;;;;;17.20;15.43;;;;;;;;;;4967454;28;20541;-11
2021/03/18 09:18:49;;;;;;;16.20;14.40;;;;;;;;;;4969157;28;20442;-12
2021/03/18 09:21:17;;;;;;;16.20;14.60;;;;;;;;;;4968275;28;20478;-12
2021/03/18 09:23:45;;;;;;;17.37;14.83;;;;;;;;;;4970824;28;20463;-11
2021/03/18 09:26:12;;;;;;;15.33;13.87;;;;;;;;;;4989175;28;20565;-12
2021/03/18 09:28:41;;;;;;;16.07;14.37;;;;;;;;;;4966927;28;20462;-12
2021/03/18 09:31:09;;;;;;;17.03;15.33;;;;;;;;;;5017896;28;20461;-11
2021/03/18 09:33:37;;;;;;;15.83;14.33;;;;;;;;;;5022910;28;20535;-12
2021/03/18 09:36:05;;;;;;;15.73;14.23;;;;;;;;;;4997780;28;20484;-13
2021/03/18 09:38:33;;;;;;;16.37;14.73;;;;;;;;;;4983544;28;20514;-12
2021/03/18 09:41:01;;;;;;;15.77;14.27;;;;;;;;;;4974918;28;20670;-12
2021/03/18 09:43:29;;;;;;;15.93;14.37;;;;;;;;;;4984983;28;21050;-12
2021/03/18 09:45:58;;;;;;;15.50;13.90;;;;;;;;;;4998628;28;20458;-12
2021/03/18 09:48:30;;;;;;;15.80;14.33;;;;;;;;;;4995317;28;20443;-12
2021/03/18 09:51:04;;;;;;;17.87;15.00;;;;;;;;;;4982047;28;20493;-12
2021/03/18 09:53:32;;;;;;;15.20;13.80;;;;;;;;;;4965390;28;20721;-11
2021/03/18 09:56:02;;;;;;;16.47;14.63;;;;;;;;;;4962914;28;20470;-12
2021/03/18 09:58:29;;;;;;;16.00;14.43;;;;;;;;;;4960105;28;21282;-12
2021/03/18 10:00:56;;;;;;;16.90;15.40;;;;;;;;;;4983160;28;20452;-13
2021/03/18 10:03:26;;;;;;;16.43;13.90;;;;;;;;;;4973113;28;20433;-12
2021/03/18 10:06:07;;;;;;;15.97;14.33;;;;;;;;;;4983646;28;20521;-13
2021/03/18 10:08:34;;;;;;;14.03;12.97;;;;;;;;;;4971060;28;20466;-11
2021/03/18 10:11:15;;;;;;;15.43;14.13;;;;;;;;;;4980554;28;20534;-11
2021/03/18 10:16:53;;;;;;;13.97;12.87;;;;;;;;;;4972265;28;20526;-10
2021/03/18 10:19:25;;;;;;;15.03;13.73;;;;;;;;;;4979774;28;20455;-12
2021/03/18 10:21:52;;;;;;;15.93;14.43;;;;;;;;;;4978859;28;21250;-12
2021/03/18 10:24:20;;;;;;;14.37;13.00;;;;;;;;;;4981234;28;20442;-12
2021/03/18 10:26:47;;;;;;;15.77;14.27;;;;;;;;;;4981672;28;20978;-11
2021/03/18 10:29:15;;;;;;;16.90;15.57;;;;;;;;;;4956128;28;20446;-12
2021/03/18 10:31:42;;;;;;;14.97;13.73;;;;;;;;;;4973744;28;20447;-12
2021/03/18 10:34:22;;;;;;;14.90;13.83;;;;;;;;;;4988112;28;20478;-12
2021/03/18 10:36:49;;;;;;;13.30;12.20;;;;;;;;;;4983332;28;20462;-12
2021/03/18 10:39:16;;;;;;;13.50;12.50;;;;;;;;;;4978284;28;20454;-12
2021/03/18 10:41:50;;;;;;;13.13;11.80;;;;;;;;;;4983889;28;20438;-12
2021/03/18 10:44:18;;;;;;;14.17;12.87;;;;;;;;;;5001155;28;20678;-12
2021/03/18 10:46:45;;;;;;;13.27;12.20;;;;;;;;;;5004696;28;20450;-12
2021/03/18 10:49:13;;;;;;;13.70;11.70;;;;;;;;;;4994207;28;20459;-12
2021/03/18 10:51:45;;;;;;;12.97;12.07;;;;;;;;;;5000981;28;20438;-12
2021/03/18 10:54:18;;;;;;;15.53;14.33;;;;;;;;;;4997155;28;20458;-12
2021/03/18 10:56:45;;;;;;;14.13;12.90;;;;;;;;;;5005979;28;20534;-12
2021/03/18 10:59:15;;;;;;;13.43;12.33;;;;;;;;;;5006178;28;20469;-11
2021/03/18 11:01:42;;;;;;;14.53;13.33;;;;;;;;;;5004817;28;20442;-11
2021/03/18 11:04:10;;;;;;;13.80;12.60;;;;;;;;;;5000318;28;20922;-12
2021/03/18 11:06:47;;;;;;;13.87;12.67;;;;;;;;;;4990719;28;20477;-12
2021/03/18 11:09:14;;;;;;;13.27;12.10;;;;;;;;;;4992470;28;20749;-12
2021/03/18 11:11:41;;;;;;;13.93;12.57;;;;;;;;;;4983766;28;20531;-11
2021/03/18 11:14:11;;;;;;;12.83;11.63;;;;;;;;;;5002304;28;20438;-11
2021/03/18 11:16:42;;;;;;;13.03;11.73;;;;;;;;;;4999441;28;21538;-11
2021/03/18 11:19:10;;;;;;;13.17;11.90;;;;;;;;;;4986132;28;20529;-13
2021/03/18 11:21:38;;;;;;;13.50;12.20;;;;;;;;;;4987163;28;20533;-12
2021/03/18 11:24:07;;;;;;;12.97;11.67;;;;;;;;;;4987664;28;20443;-12
2021/03/18 11:26:35;;;;;;;12.30;11.00;;;;;;;;;;5004775;28;20442;-12
2021/03/18 11:29:05;;;;;;;15.20;13.80;;;;;;;;;;5008143;28;20454;-12
2021/03/18 11:31:36;;;;;;;15.50;14.20;;;;;;;;;;5000056;28;20549;-12
2021/03/18 11:34:13;;;;;;;13.47;12.30;;;;;;;;;;5002528;28;20508;-12
2021/03/18 11:36:40;;;;;;;11.63;10.73;;;;;;;;;;5000833;28;20477;-12
2021/03/18 11:39:09;;;;;;;12.13;11.10;;;;;;;;;;5001799;28;20454;-12
2021/03/18 11:41:52;;;;;;;12.97;10.87;;;;;;;;;;4982843;28;20458;-12
2021/03/18 11:44:19;;;;;;;13.90;10.60;;;;;;;;;;4982978;28;20435;-11
2021/03/18 11:46:46;;;;;;;11.30;10.40;;;;;;;;;;4997835;28;20442;-12
2021/03/18 11:49:15;;;;;;;8.70;7.97;;;;;;;;;;4997461;28;20446;-12
2021/03/18 11:51:42;;;;;;;11.50;10.50;;;;;;;;;;4968310;28;20438;-12
2021/03/18 11:54:11;;;;;;;12.07;11.07;;;;;;;;;;4976813;28;20469;-12
2021/03/18 11:56:40;;;;;;;11.50;9.67;;;;;;;;;;4946039;28;20471;-12
2021/03/18 11:59:07;;;;;;;11.10;10.10;;;;;;;;;;4994096;28;20449;-11
2021/03/18 12:01:34;;;;;;;9.30;8.60;;;;;;;;;;5002711;28;20879;-13
2021/03/18 12:04:08;;;;;;;10.17;9.50;;;;;;;;;;4995135;28;20456;-13
2021/03/18 12:06:38;;;;;;;10.63;9.83;;;;;;;;;;5016434;28;20440;-14
2021/03/18 12:09:06;;;;;;;12.60;11.60;;;;;;;;;;5015426;28;20900;-13
2021/03/18 12:11:33;;;;;;;12.53;11.63;;;;;;;;;;4997967;28;20441;-15
2021/03/18 12:14:00;;;;;;;10.07;9.27;;;;;;;;;;5014725;28;20446;-13
2021/03/18 12:16:28;;;;;;;8.90;8.30;;;;;;;;;;5017152;28;20517;-14
2021/03/18 12:18:57;;;;;;;9.00;8.60;;;;;;;;;;4992402;28;20870;-14
2021/03/18 12:21:26;;;;;;;8.83;8.43;;;;;;;;;;4990090;28;20951;-14
2021/03/18 12:23:53;;;;;;;9.97;9.37;;;;;;;;;;4989114;28;20557;-14
2021/03/18 12:26:20;;;;;;;9.87;9.27;;;;;;;;;;4989045;28;20710;-13
2021/03/18 12:28:48;;;;;;;8.80;8.30;;;;;;;;;;4990659;28;21023;-15
2021/03/18 12:31:15;;;;;;;9.60;9.00;;;;;;;;;;5005636;28;20442;-14
2021/03/18 12:33:43;;;;;;;10.33;9.73;;;;;;;;;;4989748;28;20469;-13
2021/03/18 12:36:13;;;;;;;11.00;10.30;;;;;;;;;;4999462;28;20486;-14
2021/03/18 12:38:40;;;;;;;10.27;9.70;;;;;;;;;;5010419;28;20829;-15
2021/03/18 12:41:07;;;;;;;11.93;10.80;;;;;;;;;;4988107;28;20671;-15
2021/03/18 12:43:35;;;;;;;11.87;11.17;;;;;;;;;;5003464;28;20529;-13
2021/03/18 12:46:02;;;;;;;12.03;10.90;;;;;;;;;;5003139;28;20592;-12
2021/03/18 12:48:29;;;;;;;9.73;9.13;;;;;;;;;;4997921;28;20642;-14
2021/03/18 12:50:56;;;;;;;10.43;9.73;;;;;;;;;;5000555;28;20754;-14
2021/03/18 12:53:28;;;;;;;9.70;9.10;;;;;;;;;;5003384;28;20434;-13
2021/03/18 12:55:58;;;;;;;9.83;9.30;;;;;;;;;;4987225;28;20592;-14
2021/03/18 12:58:26;;;;;;;9.40;8.90;;;;;;;;;;4990959;28;20434;-13
2021/03/18 13:00:53;;;;;;;8.80;8.30;;;;;;;;;;5009076;28;20761;-14
2021/03/18 13:03:21;;;;;;;9.20;8.60;;;;;;;;;;4975115;28;20614;-12
2021/03/18 13:05:50;;;;;;;9.23;8.63;;;;;;;;;;5008808;28;20848;-13
2021/03/18 13:08:17;;;;;;;8.73;8.13;;;;;;;;;;5006164;28;20688;-13
2021/03/18 13:10:44;;;;;;;9.23;8.60;;;;;;;;;;5006741;28;20771;-13
2021/03/18 13:13:11;;;;;;;9.40;8.70;;;;;;;;;;4990353;28;20435;-14
2021/03/18 13:15:38;;;;;;;9.30;8.37;;;;;;;;;;5008739;28;20855;-13
2021/03/18 13:18:05;;;;;;;9.03;8.33;;;;;;;;;;4992739;28;20461;-13
2021/03/18 13:20:34;;;;;;;10.77;9.80;;;;;;;;;;5010303;28;20781;-13
2021/03/18 13:23:03;;;;;;;16.83;15.00;;;;;;;;;;5010049;28;20464;-14
2021/03/18 13:25:30;;;;;;;12.50;11.40;;;;;;;;;;5011307;28;20689;-14
2021/03/18 13:27:57;;;;;;;9.40;8.60;;;;;;;;;;5012019;28;20439;-15
2021/03/18 13:30:26;;;;;;;10.23;9.10;;;;;;;;;;4992573;28;20474;-14
2021/03/18 13:32:53;;;;;;;10.40;9.17;;;;;;;;;;5010334;28;20447;-14
2021/03/18 13:35:20;;;;;;;11.40;9.90;;;;;;;;;;5010329;28;20679;-13
2021/03/18 13:37:48;;;;;;;10.63;9.53;;;;;;;;;;5013522;28;20482;-13
2021/03/18 13:40:16;;;;;;;9.27;8.50;;;;;;;;;;5013540;28;21088;-13
2021/03/18 13:42:44;;;;;;;9.80;9.10;;;;;;;;;;4998199;28;20597;-14
2021/03/18 13:45:12;;;;;;;10.57;9.77;;;;;;;;;;5014189;28;20458;-13
2021/03/18 13:47:39;;;;;;;9.47;8.57;;;;;;;;;;5013334;28;20526;-13
2021/03/18 13:50:07;;;;;;;9.13;8.33;;;;;;;;;;5010432;28;21001;-13
2021/03/18 13:52:35;;;;;;;8.53;7.90;;;;;;;;;;4996165;28;20699;-14
2021/03/18 13:55:03;;;;;;;8.10;7.60;;;;;;;;;;5010737;28;20791;-13
2021/03/18 13:57:30;;;;;;;8.00;7.40;;;;;;;;;;5012817;28;20707;-15
2021/03/18 13:59:57;;;;;;;7.93;7.30;;;;;;;;;;5013954;28;20442;-14
2021/03/18 14:02:24;;;;;;;13.73;9.77;;;;;;;;;;4993808;28;20443;-12
2021/03/18 14:04:54;;;;;;;10.43;9.53;;;;;;;;;;5015399;28;20469;-14
2021/03/18 14:07:21;;;;;;;10.23;9.30;;;;;;;;;;4994404;28;20528;-12
2021/03/18 14:09:48;;;;;;;10.33;9.43;;;;;;;;;;5011698;28;21044;-13
2021/03/18 14:12:15;;;;;;;9.23;8.17;;;;;;;;;;5015037;28;20987;-12
2021/03/18 14:14:44;;;;;;;8.40;7.70;;;;;;;;;;4994736;28;20668;-12
2021/03/18 14:17:11;;;;;;;11.60;10.70;;;;;;;;;;4998094;28;20525;-13
2021/03/18 14:19:38;;;;;;;13.10;11.87;;;;;;;;;;4994457;28;20466;-14
2021/03/18 14:22:06;;;;;;;12.43;11.40;;;;;;;;;;4994728;28;20994;-14
2021/03/18 14:24:33;;;;;;;10.63;9.70;;;;;;;;;;4972785;28;20447;-13
2021/03/18 14:27:00;;;;;;;9.50;8.70;;;;;;;;;;4994627;28;20528;-14
2021/03/18 14:29:28;;;;;;;9.70;8.90;;;;;;;;;;4974032;28;20807;-13
2021/03/18 14:31:55;;;;;;;10.60;9.57;;;;;;;;;;4994818;28;20458;-14
2021/03/18 14:34:22;;;;;;;9.40;8.70;;;;;;;;;;4992793;28;20576;-13
2021/03/18 14:36:49;;;;;;;10.50;9.50;;;;;;;;;;4997540;28;20482;-14